sensor_id;sensor_type;location;lat;lon;timestamp;P1;durP1;ratioP1;P2;durP2;ratioP2
43986;SDS011;29650;47.378;8.300;2023-02-23T00:00:17;16.95;;;10.02;;
43986;SDS011;29650;47.378;8.300;2023-02-23T00:02:47;17.92;;;9.63;;
43986;SDS011;29650;47.378;8.300;2023-02-23T00:05:16;20.55;;;10.15;;
43986;SDS011;29650;47.378;8.300;2023-02-23T00:07:43;21.38;;;9.73;;
43986;SDS011;29650;47.378;8.300;2023-02-23T00:10:11;16.63;;;8.80;;
43986;SDS011;29650;47.378;8.300;2023-02-23T00:12:39;17.17;;;9.95;;
43986;SDS011;29650;47.378;8.300;2023-02-23T00:15:06;18.23;;;9.65;;
43986;SDS011;29650;47.378;8.300;2023-02-23T00:17:33;22.95;;;9.85;;
43986;SDS011;29650;47.378;8.300;2023-02-23T00:20:02;18.73;;;9.02;;
43986;SDS011;29650;47.378;8.300;2023-02-23T00:22:36;19.38;;;9.25;;
43986;SDS011;29650;47.378;8.300;2023-02-23T00:25:05;15.32;;;9.02;;
43986;SDS011;29650;47.378;8.300;2023-02-23T00:27:33;22.52;;;9.60;;
43986;SDS011;29650;47.378;8.300;2023-02-23T00:32:31;19.35;;;10.38;;
43986;SDS011;29650;47.378;8.300;2023-02-23T00:34:59;17.33;;;9.35;;
43986;SDS011;29650;47.378;8.300;2023-02-23T00:37:26;15.93;;;8.35;;
43986;SDS011;29650;47.378;8.300;2023-02-23T00:39:55;16.65;;;9.25;;
43986;SDS011;29650;47.378;8.300;2023-02-23T00:42:22;17.88;;;8.68;;
43986;SDS011;29650;47.378;8.300;2023-02-23T00:44:53;24.50;;;9.98;;
43986;SDS011;29650;47.378;8.300;2023-02-23T00:47:21;18.83;;;9.35;;
43986;SDS011;29650;47.378;8.300;2023-02-23T00:49:48;16.45;;;8.48;;
43986;SDS011;29650;47.378;8.300;2023-02-23T00:52:15;16.10;;;8.80;;
43986;SDS011;29650;47.378;8.300;2023-02-23T00:54:42;19.40;;;9.63;;
43986;SDS011;29650;47.378;8.300;2023-02-23T00:57:10;18.38;;;9.77;;
43986;SDS011;29650;47.378;8.300;2023-02-23T00:59:37;16.60;;;9.10;;
43986;SDS011;29650;47.378;8.300;2023-02-23T01:02:04;14.98;;;8.40;;
43986;SDS011;29650;47.378;8.300;2023-02-23T01:04:31;17.80;;;9.20;;
43986;SDS011;29650;47.378;8.300;2023-02-23T01:06:58;17.70;;;9.10;;
43986;SDS011;29650;47.378;8.300;2023-02-23T01:09:28;15.30;;;8.15;;
43986;SDS011;29650;47.378;8.300;2023-02-23T01:11:55;16.15;;;8.02;;
43986;SDS011;29650;47.378;8.300;2023-02-23T01:14:27;14.10;;;7.68;;
43986;SDS011;29650;47.378;8.300;2023-02-23T01:16:53;22.10;;;8.97;;
43986;SDS011;29650;47.378;8.300;2023-02-23T01:19:20;15.32;;;8.57;;
43986;SDS011;29650;47.378;8.300;2023-02-23T01:21:47;15.80;;;8.90;;
43986;SDS011;29650;47.378;8.300;2023-02-23T01:24:14;17.45;;;8.57;;
43986;SDS011;29650;47.378;8.300;2023-02-23T01:26:42;15.60;;;8.68;;
43986;SDS011;29650;47.378;8.300;2023-02-23T01:29:11;18.00;;;8.27;;
43986;SDS011;29650;47.378;8.300;2023-02-23T01:31:41;18.58;;;8.82;;
43986;SDS011;29650;47.378;8.300;2023-02-23T01:34:10;16.23;;;7.45;;
43986;SDS011;29650;47.378;8.300;2023-02-23T01:36:40;20.88;;;8.45;;
43986;SDS011;29650;47.378;8.300;2023-02-23T01:39:09;14.75;;;8.63;;
43986;SDS011;29650;47.378;8.300;2023-02-23T01:44:07;16.60;;;7.70;;
43986;SDS011;29650;47.378;8.300;2023-02-23T01:46:50;18.25;;;8.93;;
43986;SDS011;29650;47.378;8.300;2023-02-23T01:49:18;13.13;;;7.75;;
43986;SDS011;29650;47.378;8.300;2023-02-23T01:51:51;16.33;;;8.27;;
43986;SDS011;29650;47.378;8.300;2023-02-23T01:54:23;19.85;;;9.98;;
43986;SDS011;29650;47.378;8.300;2023-02-23T01:56:54;17.90;;;10.15;;
43986;SDS011;29650;47.378;8.300;2023-02-23T01:59:23;20.92;;;9.43;;
43986;SDS011;29650;47.378;8.300;2023-02-23T02:01:58;18.10;;;8.38;;
43986;SDS011;29650;47.378;8.300;2023-02-23T02:04:29;14.80;;;7.43;;
43986;SDS011;29650;47.378;8.300;2023-02-23T02:07:07;17.50;;;6.97;;
43986;SDS011;29650;47.378;8.300;2023-02-23T02:09:35;17.17;;;8.43;;
43986;SDS011;29650;47.378;8.300;2023-02-23T02:12:04;15.60;;;8.68;;
43986;SDS011;29650;47.378;8.300;2023-02-23T02:14:35;13.88;;;7.88;;
43986;SDS011;29650;47.378;8.300;2023-02-23T02:17:08;15.43;;;8.40;;
43986;SDS011;29650;47.378;8.300;2023-02-23T02:19:59;16.90;;;8.98;;
43986;SDS011;29650;47.378;8.300;2023-02-23T02:23:13;15.60;;;7.97;;
43986;SDS011;29650;47.378;8.300;2023-02-23T02:26:05;14.93;;;8.73;;
43986;SDS011;29650;47.378;8.300;2023-02-23T02:28:47;14.80;;;8.65;;
43986;SDS011;29650;47.378;8.300;2023-02-23T02:31:33;17.70;;;8.40;;
43986;SDS011;29650;47.378;8.300;2023-02-23T02:37:31;20.10;;;8.38;;
43986;SDS011;29650;47.378;8.300;2023-02-23T02:40:09;17.42;;;8.65;;
43986;SDS011;29650;47.378;8.300;2023-02-23T02:45:37;16.23;;;9.63;;
43986;SDS011;29650;47.378;8.300;2023-02-23T02:48:11;16.48;;;9.13;;
43986;SDS011;29650;47.378;8.300;2023-02-23T02:50:44;18.52;;;8.70;;
43986;SDS011;29650;47.378;8.300;2023-02-23T02:53:19;16.30;;;8.27;;
43986;SDS011;29650;47.378;8.300;2023-02-23T02:55:52;17.65;;;9.13;;
43986;SDS011;29650;47.378;8.300;2023-02-23T02:58:23;17.70;;;8.60;;
43986;SDS011;29650;47.378;8.300;2023-02-23T03:00:51;17.05;;;8.30;;
43986;SDS011;29650;47.378;8.300;2023-02-23T03:03:36;13.35;;;7.65;;
43986;SDS011;29650;47.378;8.300;2023-02-23T03:06:24;13.43;;;7.72;;
43986;SDS011;29650;47.378;8.300;2023-02-23T03:09:21;14.77;;;7.97;;
43986;SDS011;29650;47.378;8.300;2023-02-23T03:12:19;13.65;;;8.05;;
43986;SDS011;29650;47.378;8.300;2023-02-23T03:15:12;14.48;;;7.50;;
43986;SDS011;29650;47.378;8.300;2023-02-23T03:18:09;11.07;;;7.20;;
43986;SDS011;29650;47.378;8.300;2023-02-23T03:21:06;17.23;;;8.02;;
43986;SDS011;29650;47.378;8.300;2023-02-23T03:23:59;14.98;;;8.18;;
43986;SDS011;29650;47.378;8.300;2023-02-23T03:26:55;14.73;;;7.38;;
43986;SDS011;29650;47.378;8.300;2023-02-23T03:29:43;21.65;;;7.78;;
43986;SDS011;29650;47.378;8.300;2023-02-23T03:32:36;15.68;;;8.45;;
43986;SDS011;29650;47.378;8.300;2023-02-23T03:35:27;16.27;;;7.88;;
43986;SDS011;29650;47.378;8.300;2023-02-23T03:38:16;12.85;;;7.25;;
43986;SDS011;29650;47.378;8.300;2023-02-23T03:41:05;14.95;;;8.52;;
43986;SDS011;29650;47.378;8.300;2023-02-23T03:43:54;12.13;;;7.95;;
43986;SDS011;29650;47.378;8.300;2023-02-23T03:46:41;14.55;;;8.68;;
43986;SDS011;29650;47.378;8.300;2023-02-23T03:49:29;14.68;;;8.27;;
43986;SDS011;29650;47.378;8.300;2023-02-23T03:52:20;13.70;;;7.88;;
43986;SDS011;29650;47.378;8.300;2023-02-23T03:55:08;16.47;;;8.33;;
43986;SDS011;29650;47.378;8.300;2023-02-23T03:57:55;15.88;;;8.27;;
43986;SDS011;29650;47.378;8.300;2023-02-23T04:00:44;15.27;;;7.43;;
43986;SDS011;29650;47.378;8.300;2023-02-23T04:03:32;14.77;;;7.55;;
43986;SDS011;29650;47.378;8.300;2023-02-23T04:06:19;15.13;;;8.13;;
43986;SDS011;29650;47.378;8.300;2023-02-23T04:09:08;18.77;;;8.27;;
43986;SDS011;29650;47.378;8.300;2023-02-23T04:11:55;14.80;;;7.60;;
43986;SDS011;29650;47.378;8.300;2023-02-23T04:14:47;17.60;;;8.13;;
43986;SDS011;29650;47.378;8.300;2023-02-23T04:17:21;12.00;;;7.68;;
43986;SDS011;29650;47.378;8.300;2023-02-23T04:19:52;13.60;;;7.47;;
43986;SDS011;29650;47.378;8.300;2023-02-23T04:22:20;17.85;;;8.18;;
43986;SDS011;29650;47.378;8.300;2023-02-23T04:24:48;19.15;;;8.73;;
43986;SDS011;29650;47.378;8.300;2023-02-23T04:27:15;14.88;;;8.18;;
43986;SDS011;29650;47.378;8.300;2023-02-23T04:29:43;16.58;;;8.85;;
43986;SDS011;29650;47.378;8.300;2023-02-23T04:32:11;15.38;;;7.75;;
43986;SDS011;29650;47.378;8.300;2023-02-23T04:37:08;11.40;;;7.50;;
43986;SDS011;29650;47.378;8.300;2023-02-23T04:39:35;15.65;;;7.95;;
43986;SDS011;29650;47.378;8.300;2023-02-23T04:42:02;13.55;;;7.63;;
43986;SDS011;29650;47.378;8.300;2023-02-23T04:44:29;12.80;;;8.27;;
43986;SDS011;29650;47.378;8.300;2023-02-23T04:46:56;15.98;;;9.18;;
43986;SDS011;29650;47.378;8.300;2023-02-23T04:49:23;15.38;;;7.50;;
43986;SDS011;29650;47.378;8.300;2023-02-23T04:51:51;16.50;;;8.75;;
43986;SDS011;29650;47.378;8.300;2023-02-23T04:54:18;13.35;;;8.82;;
43986;SDS011;29650;47.378;8.300;2023-02-23T04:56:45;17.27;;;8.23;;
43986;SDS011;29650;47.378;8.300;2023-02-23T04:59:12;22.88;;;8.73;;
43986;SDS011;29650;47.378;8.300;2023-02-23T05:01:39;14.23;;;7.50;;
43986;SDS011;29650;47.378;8.300;2023-02-23T05:04:06;15.25;;;8.07;;
43986;SDS011;29650;47.378;8.300;2023-02-23T05:06:33;14.85;;;9.38;;
43986;SDS011;29650;47.378;8.300;2023-02-23T05:09:02;23.45;;;9.20;;
43986;SDS011;29650;47.378;8.300;2023-02-23T05:11:30;16.17;;;7.88;;
43986;SDS011;29650;47.378;8.300;2023-02-23T05:13:57;17.58;;;8.82;;
43986;SDS011;29650;47.378;8.300;2023-02-23T05:16:24;14.55;;;8.30;;
43986;SDS011;29650;47.378;8.300;2023-02-23T05:18:52;22.27;;;9.70;;
43986;SDS011;29650;47.378;8.300;2023-02-23T05:21:19;19.70;;;9.23;;
43986;SDS011;29650;47.378;8.300;2023-02-23T05:23:46;20.95;;;9.20;;
43986;SDS011;29650;47.378;8.300;2023-02-23T05:26:14;21.48;;;10.32;;
43986;SDS011;29650;47.378;8.300;2023-02-23T05:28:42;24.90;;;12.10;;
43986;SDS011;29650;47.378;8.300;2023-02-23T05:31:09;15.70;;;9.05;;
43986;SDS011;29650;47.378;8.300;2023-02-23T05:33:37;15.68;;;9.48;;
43986;SDS011;29650;47.378;8.300;2023-02-23T05:36:07;20.70;;;9.70;;
43986;SDS011;29650;47.378;8.300;2023-02-23T05:38:35;14.73;;;8.73;;
43986;SDS011;29650;47.378;8.300;2023-02-23T05:41:05;23.23;;;10.80;;
43986;SDS011;29650;47.378;8.300;2023-02-23T05:43:34;11.80;;;7.35;;
43986;SDS011;29650;47.378;8.300;2023-02-23T05:46:04;16.48;;;8.43;;
43986;SDS011;29650;47.378;8.300;2023-02-23T05:48:32;16.65;;;8.00;;
43986;SDS011;29650;47.378;8.300;2023-02-23T05:51:00;16.88;;;8.77;;
43986;SDS011;29650;47.378;8.300;2023-02-23T05:53:27;15.85;;;8.60;;
43986;SDS011;29650;47.378;8.300;2023-02-23T05:55:54;16.98;;;9.20;;
43986;SDS011;29650;47.378;8.300;2023-02-23T05:58:21;13.00;;;7.50;;
43986;SDS011;29650;47.378;8.300;2023-02-23T06:00:50;13.70;;;8.35;;
43986;SDS011;29650;47.378;8.300;2023-02-23T06:03:17;17.45;;;8.77;;
43986;SDS011;29650;47.378;8.300;2023-02-23T06:05:48;18.85;;;9.90;;
43986;SDS011;29650;47.378;8.300;2023-02-23T06:08:16;18.88;;;9.57;;
43986;SDS011;29650;47.378;8.300;2023-02-23T06:10:43;18.80;;;10.23;;
43986;SDS011;29650;47.378;8.300;2023-02-23T06:13:10;20.20;;;9.23;;
43986;SDS011;29650;47.378;8.300;2023-02-23T06:15:37;17.23;;;9.25;;
43986;SDS011;29650;47.378;8.300;2023-02-23T06:18:06;23.45;;;10.27;;
43986;SDS011;29650;47.378;8.300;2023-02-23T06:20:34;23.92;;;9.65;;
43986;SDS011;29650;47.378;8.300;2023-02-23T06:23:02;17.10;;;10.43;;
43986;SDS011;29650;47.378;8.300;2023-02-23T06:25:29;15.65;;;9.10;;
43986;SDS011;29650;47.378;8.300;2023-02-23T06:27:56;20.45;;;10.43;;
43986;SDS011;29650;47.378;8.300;2023-02-23T06:30:23;20.05;;;10.13;;
43986;SDS011;29650;47.378;8.300;2023-02-23T06:32:50;18.48;;;9.98;;
43986;SDS011;29650;47.378;8.300;2023-02-23T06:35:19;21.52;;;11.75;;
43986;SDS011;29650;47.378;8.300;2023-02-23T06:37:46;20.87;;;9.23;;
43986;SDS011;29650;47.378;8.300;2023-02-23T06:40:13;14.43;;;9.32;;
43986;SDS011;29650;47.378;8.300;2023-02-23T06:42:40;16.92;;;9.52;;
43986;SDS011;29650;47.378;8.300;2023-02-23T06:45:07;24.92;;;9.82;;
43986;SDS011;29650;47.378;8.300;2023-02-23T06:47:35;16.25;;;9.38;;
43986;SDS011;29650;47.378;8.300;2023-02-23T06:50:02;18.00;;;9.77;;
43986;SDS011;29650;47.378;8.300;2023-02-23T06:52:30;20.02;;;10.02;;
43986;SDS011;29650;47.378;8.300;2023-02-23T06:54:58;17.30;;;9.20;;
43986;SDS011;29650;47.378;8.300;2023-02-23T06:57:25;17.67;;;9.38;;
43986;SDS011;29650;47.378;8.300;2023-02-23T06:59:52;18.33;;;10.15;;
43986;SDS011;29650;47.378;8.300;2023-02-23T07:02:19;20.05;;;11.10;;
43986;SDS011;29650;47.378;8.300;2023-02-23T07:04:46;18.17;;;10.20;;
43986;SDS011;29650;47.378;8.300;2023-02-23T07:07:13;22.95;;;11.43;;
43986;SDS011;29650;47.378;8.300;2023-02-23T07:09:41;19.38;;;9.45;;
43986;SDS011;29650;47.378;8.300;2023-02-23T07:12:08;23.48;;;11.65;;
43986;SDS011;29650;47.378;8.300;2023-02-23T07:14:36;19.60;;;11.52;;
43986;SDS011;29650;47.378;8.300;2023-02-23T07:17:04;17.23;;;10.52;;
43986;SDS011;29650;47.378;8.300;2023-02-23T07:19:31;15.68;;;9.07;;
43986;SDS011;29650;47.378;8.300;2023-02-23T07:21:58;18.08;;;9.43;;
43986;SDS011;29650;47.378;8.300;2023-02-23T07:24:25;20.02;;;8.68;;
43986;SDS011;29650;47.378;8.300;2023-02-23T07:26:54;16.55;;;9.50;;
43986;SDS011;29650;47.378;8.300;2023-02-23T07:29:21;15.27;;;7.90;;
43986;SDS011;29650;47.378;8.300;2023-02-23T07:31:49;16.23;;;8.75;;
43986;SDS011;29650;47.378;8.300;2023-02-23T07:34:16;15.30;;;8.70;;
43986;SDS011;29650;47.378;8.300;2023-02-23T07:36:43;15.77;;;9.00;;
43986;SDS011;29650;47.378;8.300;2023-02-23T07:39:10;16.35;;;8.68;;
43986;SDS011;29650;47.378;8.300;2023-02-23T07:41:37;14.10;;;8.68;;
43986;SDS011;29650;47.378;8.300;2023-02-23T07:44:06;19.10;;;8.93;;
43986;SDS011;29650;47.378;8.300;2023-02-23T07:46:33;18.10;;;9.52;;
43986;SDS011;29650;47.378;8.300;2023-02-23T07:49:00;25.95;;;10.73;;
43986;SDS011;29650;47.378;8.300;2023-02-23T07:51:28;27.02;;;11.25;;
43986;SDS011;29650;47.378;8.300;2023-02-23T07:53:55;17.70;;;9.18;;
43986;SDS011;29650;47.378;8.300;2023-02-23T07:56:22;17.70;;;10.80;;
43986;SDS011;29650;47.378;8.300;2023-02-23T07:58:49;22.60;;;10.85;;
43986;SDS011;29650;47.378;8.300;2023-02-23T08:01:18;20.42;;;11.10;;
43986;SDS011;29650;47.378;8.300;2023-02-23T08:03:45;21.35;;;11.80;;
43986;SDS011;29650;47.378;8.300;2023-02-23T08:06:13;16.67;;;10.30;;
43986;SDS011;29650;47.378;8.300;2023-02-23T08:08:41;19.33;;;10.50;;
43986;SDS011;29650;47.378;8.300;2023-02-23T08:11:08;22.02;;;10.40;;
43986;SDS011;29650;47.378;8.300;2023-02-23T08:13:36;23.08;;;11.35;;
43986;SDS011;29650;47.378;8.300;2023-02-23T08:16:04;22.30;;;12.70;;
43986;SDS011;29650;47.378;8.300;2023-02-23T08:18:33;20.20;;;10.77;;
43986;SDS011;29650;47.378;8.300;2023-02-23T08:21:00;23.92;;;12.73;;
43986;SDS011;29650;47.378;8.300;2023-02-23T08:23:29;21.48;;;11.82;;
43986;SDS011;29650;47.378;8.300;2023-02-23T08:25:57;19.65;;;11.57;;
43986;SDS011;29650;47.378;8.300;2023-02-23T08:28:25;33.83;;;13.25;;
43986;SDS011;29650;47.378;8.300;2023-02-23T08:30:52;22.83;;;11.68;;
43986;SDS011;29650;47.378;8.300;2023-02-23T08:33:19;21.30;;;12.18;;
43986;SDS011;29650;47.378;8.300;2023-02-23T08:35:48;24.85;;;12.95;;
43986;SDS011;29650;47.378;8.300;2023-02-23T08:38:17;21.80;;;12.48;;
43986;SDS011;29650;47.378;8.300;2023-02-23T08:40:44;25.67;;;12.27;;
43986;SDS011;29650;47.378;8.300;2023-02-23T08:43:11;27.70;;;11.93;;
43986;SDS011;29650;47.378;8.300;2023-02-23T08:45:38;18.15;;;10.75;;
43986;SDS011;29650;47.378;8.300;2023-02-23T08:48:05;17.15;;;11.13;;
43986;SDS011;29650;47.378;8.300;2023-02-23T08:50:32;19.70;;;12.48;;
43986;SDS011;29650;47.378;8.300;2023-02-23T08:53:01;22.35;;;12.02;;
43986;SDS011;29650;47.378;8.300;2023-02-23T08:55:28;21.80;;;12.40;;
43986;SDS011;29650;47.378;8.300;2023-02-23T08:57:55;23.73;;;12.60;;
43986;SDS011;29650;47.378;8.300;2023-02-23T09:00:22;23.95;;;12.25;;
43986;SDS011;29650;47.378;8.300;2023-02-23T09:02:49;20.65;;;11.90;;
43986;SDS011;29650;47.378;8.300;2023-02-23T09:05:16;19.27;;;11.60;;
43986;SDS011;29650;47.378;8.300;2023-02-23T09:07:44;24.50;;;12.00;;
43986;SDS011;29650;47.378;8.300;2023-02-23T09:10:15;20.92;;;11.73;;
43986;SDS011;29650;47.378;8.300;2023-02-23T09:12:43;18.88;;;11.23;;
43986;SDS011;29650;47.378;8.300;2023-02-23T09:15:10;24.95;;;12.27;;
43986;SDS011;29650;47.378;8.300;2023-02-23T09:17:37;19.92;;;11.20;;
43986;SDS011;29650;47.378;8.300;2023-02-23T09:20:07;19.00;;;11.27;;
43986;SDS011;29650;47.378;8.300;2023-02-23T09:22:38;19.90;;;11.65;;
43986;SDS011;29650;47.378;8.300;2023-02-23T09:25:06;18.30;;;10.45;;
43986;SDS011;29650;47.378;8.300;2023-02-23T09:27:35;17.20;;;10.97;;
43986;SDS011;29650;47.378;8.300;2023-02-23T09:30:03;19.58;;;12.13;;
43986;SDS011;29650;47.378;8.300;2023-02-23T09:32:30;19.73;;;10.90;;
43986;SDS011;29650;47.378;8.300;2023-02-23T09:34:57;22.27;;;12.30;;
43986;SDS011;29650;47.378;8.300;2023-02-23T09:37:24;24.35;;;11.10;;
43986;SDS011;29650;47.378;8.300;2023-02-23T09:39:51;17.70;;;10.88;;
43986;SDS011;29650;47.378;8.300;2023-02-23T09:42:27;17.98;;;10.57;;
43986;SDS011;29650;47.378;8.300;2023-02-23T09:45:06;19.58;;;11.57;;
43986;SDS011;29650;47.378;8.300;2023-02-23T09:48:01;19.75;;;10.88;;
43986;SDS011;29650;47.378;8.300;2023-02-23T09:50:36;17.10;;;9.50;;
43986;SDS011;29650;47.378;8.300;2023-02-23T09:53:05;21.77;;;11.50;;
43986;SDS011;29650;47.378;8.300;2023-02-23T09:55:38;19.02;;;10.00;;
43986;SDS011;29650;47.378;8.300;2023-02-23T09:58:13;22.60;;;10.63;;
43986;SDS011;29650;47.378;8.300;2023-02-23T10:00:46;20.75;;;10.27;;
43986;SDS011;29650;47.378;8.300;2023-02-23T10:05:54;17.27;;;9.45;;
43986;SDS011;29650;47.378;8.300;2023-02-23T10:08:32;14.95;;;9.25;;
43986;SDS011;29650;47.378;8.300;2023-02-23T10:11:17;14.75;;;9.15;;
43986;SDS011;29650;47.378;8.300;2023-02-23T10:13:53;15.48;;;8.68;;
43986;SDS011;29650;47.378;8.300;2023-02-23T10:16:28;18.52;;;9.80;;
43986;SDS011;29650;47.378;8.300;2023-02-23T10:19:02;16.25;;;9.80;;
43986;SDS011;29650;47.378;8.300;2023-02-23T10:21:37;22.55;;;10.63;;
43986;SDS011;29650;47.378;8.300;2023-02-23T10:24:06;18.27;;;9.93;;
43986;SDS011;29650;47.378;8.300;2023-02-23T10:26:38;19.52;;;10.10;;
43986;SDS011;29650;47.378;8.300;2023-02-23T10:29:18;14.60;;;9.02;;
43986;SDS011;29650;47.378;8.300;2023-02-23T10:31:48;24.27;;;10.32;;
43986;SDS011;29650;47.378;8.300;2023-02-23T10:34:20;15.45;;;8.18;;
43986;SDS011;29650;47.378;8.300;2023-02-23T10:36:50;17.88;;;8.88;;
43986;SDS011;29650;47.378;8.300;2023-02-23T10:39:21;16.90;;;9.32;;
43986;SDS011;29650;47.378;8.300;2023-02-23T10:41:48;16.35;;;9.27;;
43986;SDS011;29650;47.378;8.300;2023-02-23T10:44:18;14.65;;;8.55;;
43986;SDS011;29650;47.378;8.300;2023-02-23T10:46:48;16.73;;;9.68;;
43986;SDS011;29650;47.378;8.300;2023-02-23T10:49:20;13.95;;;9.20;;
43986;SDS011;29650;47.378;8.300;2023-02-23T10:51:49;15.02;;;8.82;;
43986;SDS011;29650;47.378;8.300;2023-02-23T10:57:12;15.23;;;7.70;;
43986;SDS011;29650;47.378;8.300;2023-02-23T11:02:57;14.57;;;7.40;;
43986;SDS011;29650;47.378;8.300;2023-02-23T11:05:33;14.75;;;8.23;;
43986;SDS011;29650;47.378;8.300;2023-02-23T11:08:09;14.82;;;8.45;;
43986;SDS011;29650;47.378;8.300;2023-02-23T11:10:43;12.40;;;7.70;;
43986;SDS011;29650;47.378;8.300;2023-02-23T11:13:25;12.05;;;7.90;;
43986;SDS011;29650;47.378;8.300;2023-02-23T11:15:59;16.67;;;8.02;;
43986;SDS011;29650;47.378;8.300;2023-02-23T11:18:27;16.73;;;8.10;;
43986;SDS011;29650;47.378;8.300;2023-02-23T11:20:55;14.98;;;8.45;;
43986;SDS011;29650;47.378;8.300;2023-02-23T11:23:23;14.57;;;7.80;;
43986;SDS011;29650;47.378;8.300;2023-02-23T11:25:53;11.93;;;7.80;;
43986;SDS011;29650;47.378;8.300;2023-02-23T11:28:25;13.85;;;7.90;;
43986;SDS011;29650;47.378;8.300;2023-02-23T11:30:55;16.85;;;9.52;;
43986;SDS011;29650;47.378;8.300;2023-02-23T11:33:27;24.17;;;9.02;;
43986;SDS011;29650;47.378;8.300;2023-02-23T11:36:12;15.27;;;8.85;;
43986;SDS011;29650;47.378;8.300;2023-02-23T11:38:41;23.33;;;9.80;;
43986;SDS011;29650;47.378;8.300;2023-02-23T11:41:17;22.02;;;9.70;;
43986;SDS011;29650;47.378;8.300;2023-02-23T11:43:47;17.85;;;9.23;;
43986;SDS011;29650;47.378;8.300;2023-02-23T11:46:15;15.48;;;8.85;;
43986;SDS011;29650;47.378;8.300;2023-02-23T11:48:47;19.55;;;9.55;;
43986;SDS011;29650;47.378;8.300;2023-02-23T11:51:23;19.15;;;9.18;;
43986;SDS011;29650;47.378;8.300;2023-02-23T11:53:51;16.92;;;9.02;;
43986;SDS011;29650;47.378;8.300;2023-02-23T11:56:19;15.32;;;8.38;;
43986;SDS011;29650;47.378;8.300;2023-02-23T11:58:49;18.70;;;8.50;;
43986;SDS011;29650;47.378;8.300;2023-02-23T12:01:20;16.02;;;8.52;;
43986;SDS011;29650;47.378;8.300;2023-02-23T12:04:00;13.15;;;7.60;;
43986;SDS011;29650;47.378;8.300;2023-02-23T12:06:29;15.02;;;8.05;;
43986;SDS011;29650;47.378;8.300;2023-02-23T12:08:58;16.65;;;8.52;;
43986;SDS011;29650;47.378;8.300;2023-02-23T12:11:32;15.20;;;8.02;;
43986;SDS011;29650;47.378;8.300;2023-02-23T12:14:04;16.35;;;7.68;;
43986;SDS011;29650;47.378;8.300;2023-02-23T12:16:37;14.70;;;8.05;;
43986;SDS011;29650;47.378;8.300;2023-02-23T12:19:12;14.40;;;8.55;;
43986;SDS011;29650;47.378;8.300;2023-02-23T12:21:47;11.02;;;6.57;;
43986;SDS011;29650;47.378;8.300;2023-02-23T12:24:22;13.40;;;6.68;;
43986;SDS011;29650;47.378;8.300;2023-02-23T12:26:57;13.85;;;7.07;;
43986;SDS011;29650;47.378;8.300;2023-02-23T12:29:28;11.38;;;6.18;;
43986;SDS011;29650;47.378;8.300;2023-02-23T12:32:01;16.10;;;6.90;;
43986;SDS011;29650;47.378;8.300;2023-02-23T12:34:37;14.88;;;6.35;;
43986;SDS011;29650;47.378;8.300;2023-02-23T12:37:14;10.13;;;6.32;;
43986;SDS011;29650;47.378;8.300;2023-02-23T12:39:53;12.18;;;6.28;;
43986;SDS011;29650;47.378;8.300;2023-02-23T12:42:24;11.65;;;5.75;;
43986;SDS011;29650;47.378;8.300;2023-02-23T12:45:00;16.33;;;6.80;;
43986;SDS011;29650;47.378;8.300;2023-02-23T12:47:31;10.77;;;6.18;;
43986;SDS011;29650;47.378;8.300;2023-02-23T12:50:03;10.70;;;5.95;;
43986;SDS011;29650;47.378;8.300;2023-02-23T12:52:38;12.30;;;6.68;;
43986;SDS011;29650;47.378;8.300;2023-02-23T12:55:11;9.73;;;6.15;;
43986;SDS011;29650;47.378;8.300;2023-02-23T12:57:41;15.73;;;6.70;;
43986;SDS011;29650;47.378;8.300;2023-02-23T13:00:29;11.63;;;5.45;;
43986;SDS011;29650;47.378;8.300;2023-02-23T13:03:07;15.77;;;6.63;;
43986;SDS011;29650;47.378;8.300;2023-02-23T13:05:50;8.98;;;5.38;;
43986;SDS011;29650;47.378;8.300;2023-02-23T13:08:28;12.30;;;6.18;;
43986;SDS011;29650;47.378;8.300;2023-02-23T13:11:05;12.23;;;5.93;;
43986;SDS011;29650;47.378;8.300;2023-02-23T13:13:43;8.80;;;5.47;;
43986;SDS011;29650;47.378;8.300;2023-02-23T13:16:16;11.68;;;5.47;;
43986;SDS011;29650;47.378;8.300;2023-02-23T13:19:02;12.20;;;6.03;;
43986;SDS011;29650;47.378;8.300;2023-02-23T13:21:38;11.80;;;6.03;;
43986;SDS011;29650;47.378;8.300;2023-02-23T13:24:11;11.23;;;5.80;;
43986;SDS011;29650;47.378;8.300;2023-02-23T13:26:45;13.13;;;5.95;;
43986;SDS011;29650;47.378;8.300;2023-02-23T13:29:21;11.20;;;6.00;;
43986;SDS011;29650;47.378;8.300;2023-02-23T13:31:55;10.27;;;5.65;;
43986;SDS011;29650;47.378;8.300;2023-02-23T13:34:25;9.05;;;5.80;;
43986;SDS011;29650;47.378;8.300;2023-02-23T13:36:55;11.32;;;5.78;;
43986;SDS011;29650;47.378;8.300;2023-02-23T13:39:34;15.02;;;6.50;;
43986;SDS011;29650;47.378;8.300;2023-02-23T13:42:26;10.85;;;5.78;;
43986;SDS011;29650;47.378;8.300;2023-02-23T13:45:15;11.73;;;5.97;;
43986;SDS011;29650;47.378;8.300;2023-02-23T13:47:52;12.27;;;5.07;;
43986;SDS011;29650;47.378;8.300;2023-02-23T13:50:22;11.80;;;5.43;;
43986;SDS011;29650;47.378;8.300;2023-02-23T13:52:59;10.32;;;5.22;;
43986;SDS011;29650;47.378;8.300;2023-02-23T13:55:36;12.18;;;5.85;;
43986;SDS011;29650;47.378;8.300;2023-02-23T13:58:15;10.23;;;5.47;;
43986;SDS011;29650;47.378;8.300;2023-02-23T14:00:52;13.13;;;6.00;;
43986;SDS011;29650;47.378;8.300;2023-02-23T14:03:28;8.38;;;5.38;;
43986;SDS011;29650;47.378;8.300;2023-02-23T14:05:59;9.48;;;4.63;;
43986;SDS011;29650;47.378;8.300;2023-02-23T14:08:29;8.30;;;5.35;;
43986;SDS011;29650;47.378;8.300;2023-02-23T14:11:00;10.85;;;5.45;;
43986;SDS011;29650;47.378;8.300;2023-02-23T14:13:28;10.40;;;5.78;;
43986;SDS011;29650;47.378;8.300;2023-02-23T14:16:11;12.90;;;6.00;;
43986;SDS011;29650;47.378;8.300;2023-02-23T14:18:52;12.13;;;6.05;;
43986;SDS011;29650;47.378;8.300;2023-02-23T14:21:25;12.80;;;5.18;;
43986;SDS011;29650;47.378;8.300;2023-02-23T14:24:03;12.35;;;4.53;;
43986;SDS011;29650;47.378;8.300;2023-02-23T14:26:40;9.25;;;4.57;;
43986;SDS011;29650;47.378;8.300;2023-02-23T14:29:19;11.50;;;4.50;;
43986;SDS011;29650;47.378;8.300;2023-02-23T14:31:52;12.10;;;4.75;;
43986;SDS011;29650;47.378;8.300;2023-02-23T14:34:45;10.05;;;4.45;;
43986;SDS011;29650;47.378;8.300;2023-02-23T14:37:17;10.68;;;4.75;;
43986;SDS011;29650;47.378;8.300;2023-02-23T14:39:50;13.98;;;4.03;;
43986;SDS011;29650;47.378;8.300;2023-02-23T14:42:20;11.65;;;4.22;;
43986;SDS011;29650;47.378;8.300;2023-02-23T14:44:49;9.02;;;4.35;;
43986;SDS011;29650;47.378;8.300;2023-02-23T14:47:19;11.57;;;4.97;;
43986;SDS011;29650;47.378;8.300;2023-02-23T14:49:48;8.05;;;4.65;;
43986;SDS011;29650;47.378;8.300;2023-02-23T14:52:18;14.40;;;4.80;;
43986;SDS011;29650;47.378;8.300;2023-02-23T14:54:48;13.48;;;4.82;;
43986;SDS011;29650;47.378;8.300;2023-02-23T14:57:19;16.88;;;4.85;;
43986;SDS011;29650;47.378;8.300;2023-02-23T14:59:51;10.27;;;4.30;;
43986;SDS011;29650;47.378;8.300;2023-02-23T15:02:20;9.98;;;4.65;;
43986;SDS011;29650;47.378;8.300;2023-02-23T15:04:49;9.95;;;4.55;;
43986;SDS011;29650;47.378;8.300;2023-02-23T15:07:17;10.00;;;4.20;;
43986;SDS011;29650;47.378;8.300;2023-02-23T15:09:48;9.63;;;4.63;;
43986;SDS011;29650;47.378;8.300;2023-02-23T15:12:20;10.90;;;4.35;;
43986;SDS011;29650;47.378;8.300;2023-02-23T15:14:51;6.28;;;3.85;;
43986;SDS011;29650;47.378;8.300;2023-02-23T15:17:21;19.38;;;4.60;;
43986;SDS011;29650;47.378;8.300;2023-02-23T15:19:52;11.60;;;3.83;;
43986;SDS011;29650;47.378;8.300;2023-02-23T15:22:23;14.77;;;4.25;;
43986;SDS011;29650;47.378;8.300;2023-02-23T15:24:54;9.82;;;4.07;;